Terminal Aerodrome Forecast
Issued by NWS Twin Cities, MN

Home | Current Version | Previous Version | Graphics & Text | Print | Product List | Glossary On
Versions: 1 2 3 4 5 6 7 8 9 10 11 12 13 14 15 16 17 18 19 20
000
FTUS43 KMPX 281733
TAFEAU
TAF
KEAU 281733Z 2818/2918 15014KT 4SM BR OVC010
     FM282300 14007KT 3SM BR OVC008
      TEMPO 2903/2906 1 1/2SM -FZDZSN OVC005
     FM290600 VRB03KT 4SM BR OVC004
     FM290900 31011KT P6SM OVC009
     FM291300 32014G23KT P6SM OVC015=

USA.gov is the U.S. government's official web portal to all federal, state and local government web resources and services.